sensor_id;sensor_type;location;lat;lon;timestamp;P1;durP1;ratioP1;P2;durP2;ratioP2
13959;SDS011;7052;51.050;3.716;2023-09-19T00:00:37;10.27;;;3.13;;
13959;SDS011;7052;51.050;3.716;2023-09-19T00:03:06;8.02;;;2.55;;
13959;SDS011;7052;51.050;3.716;2023-09-19T00:05:37;9.50;;;2.88;;
13959;SDS011;7052;51.050;3.716;2023-09-19T00:08:09;7.53;;;2.70;;
13959;SDS011;7052;51.050;3.716;2023-09-19T00:10:38;7.30;;;2.85;;
13959;SDS011;7052;51.050;3.716;2023-09-19T00:13:09;5.47;;;2.65;;
13959;SDS011;7052;51.050;3.716;2023-09-19T00:15:39;10.27;;;3.03;;
13959;SDS011;7052;51.050;3.716;2023-09-19T00:18:13;7.38;;;3.03;;
13959;SDS011;7052;51.050;3.716;2023-09-19T00:20:43;6.60;;;2.67;;
13959;SDS011;7052;51.050;3.716;2023-09-19T00:23:16;10.48;;;2.90;;
13959;SDS011;7052;51.050;3.716;2023-09-19T00:25:44;7.50;;;2.88;;
13959;SDS011;7052;51.050;3.716;2023-09-19T00:28:12;8.05;;;2.95;;
13959;SDS011;7052;51.050;3.716;2023-09-19T00:30:42;9.32;;;3.63;;
13959;SDS011;7052;51.050;3.716;2023-09-19T00:33:10;8.02;;;3.05;;
13959;SDS011;7052;51.050;3.716;2023-09-19T00:35:46;12.27;;;2.97;;
13959;SDS011;7052;51.050;3.716;2023-09-19T00:38:14;9.43;;;3.63;;
13959;SDS011;7052;51.050;3.716;2023-09-19T00:40:43;8.10;;;3.22;;
13959;SDS011;7052;51.050;3.716;2023-09-19T00:43:11;9.07;;;2.70;;
13959;SDS011;7052;51.050;3.716;2023-09-19T00:45:42;8.38;;;2.85;;
13959;SDS011;7052;51.050;3.716;2023-09-19T00:48:10;7.63;;;3.17;;
13959;SDS011;7052;51.050;3.716;2023-09-19T00:50:39;6.78;;;2.90;;
13959;SDS011;7052;51.050;3.716;2023-09-19T00:53:09;9.43;;;3.00;;
13959;SDS011;7052;51.050;3.716;2023-09-19T00:55:39;6.68;;;3.13;;
13959;SDS011;7052;51.050;3.716;2023-09-19T00:58:09;9.23;;;3.10;;
13959;SDS011;7052;51.050;3.716;2023-09-19T01:00:39;9.73;;;3.05;;
13959;SDS011;7052;51.050;3.716;2023-09-19T01:03:10;10.40;;;2.70;;
13959;SDS011;7052;51.050;3.716;2023-09-19T01:05:38;7.97;;;3.00;;
13959;SDS011;7052;51.050;3.716;2023-09-19T01:08:08;7.45;;;2.70;;
13959;SDS011;7052;51.050;3.716;2023-09-19T01:10:37;9.82;;;3.10;;
13959;SDS011;7052;51.050;3.716;2023-09-19T01:13:13;10.45;;;3.00;;
13959;SDS011;7052;51.050;3.716;2023-09-19T01:15:50;10.90;;;3.15;;
13959;SDS011;7052;51.050;3.716;2023-09-19T01:18:27;8.63;;;3.20;;
13959;SDS011;7052;51.050;3.716;2023-09-19T01:21:03;9.80;;;3.50;;
13959;SDS011;7052;51.050;3.716;2023-09-19T01:23:46;8.77;;;3.17;;
13959;SDS011;7052;51.050;3.716;2023-09-19T01:26:40;7.43;;;3.05;;
13959;SDS011;7052;51.050;3.716;2023-09-19T01:29:26;7.38;;;2.80;;
13959;SDS011;7052;51.050;3.716;2023-09-19T01:32:06;11.48;;;3.28;;
13959;SDS011;7052;51.050;3.716;2023-09-19T01:34:47;10.02;;;3.20;;
13959;SDS011;7052;51.050;3.716;2023-09-19T01:37:16;11.55;;;3.40;;
13959;SDS011;7052;51.050;3.716;2023-09-19T01:39:45;8.65;;;3.10;;
13959;SDS011;7052;51.050;3.716;2023-09-19T01:42:18;8.32;;;2.92;;
13959;SDS011;7052;51.050;3.716;2023-09-19T01:44:54;9.43;;;3.30;;
13959;SDS011;7052;51.050;3.716;2023-09-19T01:47:32;10.68;;;3.38;;
13959;SDS011;7052;51.050;3.716;2023-09-19T01:50:02;9.55;;;2.88;;
13959;SDS011;7052;51.050;3.716;2023-09-19T01:52:43;8.73;;;3.42;;
13959;SDS011;7052;51.050;3.716;2023-09-19T01:55:15;9.85;;;3.30;;
13959;SDS011;7052;51.050;3.716;2023-09-19T01:57:48;7.65;;;3.03;;
13959;SDS011;7052;51.050;3.716;2023-09-19T02:00:20;9.45;;;3.60;;
13959;SDS011;7052;51.050;3.716;2023-09-19T02:02:50;10.10;;;3.47;;
13959;SDS011;7052;51.050;3.716;2023-09-19T02:05:25;10.35;;;3.30;;
13959;SDS011;7052;51.050;3.716;2023-09-19T02:07:53;9.73;;;3.40;;
13959;SDS011;7052;51.050;3.716;2023-09-19T02:10:21;11.75;;;3.50;;
13959;SDS011;7052;51.050;3.716;2023-09-19T02:12:49;13.38;;;3.75;;
13959;SDS011;7052;51.050;3.716;2023-09-19T02:15:17;9.57;;;3.20;;
13959;SDS011;7052;51.050;3.716;2023-09-19T02:17:45;12.60;;;3.67;;
13959;SDS011;7052;51.050;3.716;2023-09-19T02:20:14;12.57;;;3.40;;
13959;SDS011;7052;51.050;3.716;2023-09-19T02:22:42;13.80;;;3.55;;
13959;SDS011;7052;51.050;3.716;2023-09-19T02:25:09;10.38;;;3.25;;
13959;SDS011;7052;51.050;3.716;2023-09-19T02:27:38;10.27;;;3.67;;
13959;SDS011;7052;51.050;3.716;2023-09-19T02:30:08;9.73;;;3.42;;
13959;SDS011;7052;51.050;3.716;2023-09-19T02:32:35;11.25;;;3.80;;
13959;SDS011;7052;51.050;3.716;2023-09-19T02:35:04;6.95;;;2.72;;
13959;SDS011;7052;51.050;3.716;2023-09-19T02:37:37;11.38;;;3.58;;
13959;SDS011;7052;51.050;3.716;2023-09-19T02:40:06;10.35;;;3.22;;
13959;SDS011;7052;51.050;3.716;2023-09-19T02:42:45;11.07;;;3.25;;
13959;SDS011;7052;51.050;3.716;2023-09-19T02:45:15;10.52;;;3.45;;
13959;SDS011;7052;51.050;3.716;2023-09-19T02:47:47;9.82;;;3.35;;
13959;SDS011;7052;51.050;3.716;2023-09-19T02:50:15;14.85;;;3.67;;
13959;SDS011;7052;51.050;3.716;2023-09-19T02:52:45;10.23;;;3.53;;
13959;SDS011;7052;51.050;3.716;2023-09-19T02:55:14;8.00;;;2.90;;
13959;SDS011;7052;51.050;3.716;2023-09-19T02:57:48;9.30;;;3.15;;
13959;SDS011;7052;51.050;3.716;2023-09-19T03:00:16;11.13;;;3.20;;
13959;SDS011;7052;51.050;3.716;2023-09-19T03:02:47;8.60;;;3.05;;
13959;SDS011;7052;51.050;3.716;2023-09-19T03:05:14;11.57;;;3.85;;
13959;SDS011;7052;51.050;3.716;2023-09-19T03:07:44;9.38;;;3.25;;
13959;SDS011;7052;51.050;3.716;2023-09-19T03:10:15;10.40;;;3.30;;
13959;SDS011;7052;51.050;3.716;2023-09-19T03:12:44;12.15;;;3.10;;
13959;SDS011;7052;51.050;3.716;2023-09-19T03:15:14;7.45;;;2.75;;
13959;SDS011;7052;51.050;3.716;2023-09-19T03:17:42;6.57;;;3.03;;
13959;SDS011;7052;51.050;3.716;2023-09-19T03:20:11;7.85;;;3.03;;
13959;SDS011;7052;51.050;3.716;2023-09-19T03:22:39;8.65;;;3.13;;
13959;SDS011;7052;51.050;3.716;2023-09-19T03:25:11;8.07;;;2.92;;
13959;SDS011;7052;51.050;3.716;2023-09-19T03:27:40;7.07;;;3.10;;
13959;SDS011;7052;51.050;3.716;2023-09-19T03:30:08;11.10;;;3.10;;
13959;SDS011;7052;51.050;3.716;2023-09-19T03:32:43;8.02;;;3.42;;
13959;SDS011;7052;51.050;3.716;2023-09-19T03:35:11;8.95;;;2.70;;
13959;SDS011;7052;51.050;3.716;2023-09-19T03:37:39;8.00;;;3.28;;
13959;SDS011;7052;51.050;3.716;2023-09-19T03:40:10;9.55;;;2.97;;
13959;SDS011;7052;51.050;3.716;2023-09-19T03:42:41;11.20;;;3.33;;
13959;SDS011;7052;51.050;3.716;2023-09-19T03:45:08;7.93;;;3.00;;
13959;SDS011;7052;51.050;3.716;2023-09-19T03:47:40;9.63;;;3.38;;
13959;SDS011;7052;51.050;3.716;2023-09-19T03:50:08;9.88;;;3.53;;
13959;SDS011;7052;51.050;3.716;2023-09-19T03:52:36;9.90;;;3.00;;
13959;SDS011;7052;51.050;3.716;2023-09-19T03:55:08;12.60;;;3.30;;
13959;SDS011;7052;51.050;3.716;2023-09-19T03:57:39;10.38;;;3.65;;
13959;SDS011;7052;51.050;3.716;2023-09-19T04:00:06;6.68;;;3.20;;
13959;SDS011;7052;51.050;3.716;2023-09-19T04:02:36;9.50;;;3.47;;
13959;SDS011;7052;51.050;3.716;2023-09-19T04:05:04;11.77;;;3.70;;
13959;SDS011;7052;51.050;3.716;2023-09-19T04:07:31;13.23;;;3.65;;
13959;SDS011;7052;51.050;3.716;2023-09-19T04:09:59;10.23;;;3.30;;
13959;SDS011;7052;51.050;3.716;2023-09-19T04:12:28;11.07;;;3.30;;
13959;SDS011;7052;51.050;3.716;2023-09-19T04:14:55;12.00;;;3.50;;
13959;SDS011;7052;51.050;3.716;2023-09-19T04:17:22;8.63;;;3.43;;
13959;SDS011;7052;51.050;3.716;2023-09-19T04:19:51;8.97;;;3.10;;
13959;SDS011;7052;51.050;3.716;2023-09-19T04:22:18;9.07;;;3.50;;
13959;SDS011;7052;51.050;3.716;2023-09-19T04:24:47;10.43;;;3.65;;
13959;SDS011;7052;51.050;3.716;2023-09-19T04:27:14;15.35;;;4.45;;
13959;SDS011;7052;51.050;3.716;2023-09-19T04:29:45;11.32;;;3.38;;
13959;SDS011;7052;51.050;3.716;2023-09-19T04:32:18;11.23;;;3.83;;
13959;SDS011;7052;51.050;3.716;2023-09-19T04:34:50;12.10;;;3.20;;
13959;SDS011;7052;51.050;3.716;2023-09-19T04:37:19;15.57;;;4.15;;
13959;SDS011;7052;51.050;3.716;2023-09-19T04:39:46;13.38;;;3.55;;
13959;SDS011;7052;51.050;3.716;2023-09-19T04:42:14;12.93;;;4.18;;
13959;SDS011;7052;51.050;3.716;2023-09-19T04:44:43;13.10;;;3.63;;
13959;SDS011;7052;51.050;3.716;2023-09-19T04:47:14;11.93;;;3.90;;
13959;SDS011;7052;51.050;3.716;2023-09-19T04:49:41;14.53;;;4.37;;
13959;SDS011;7052;51.050;3.716;2023-09-19T04:52:08;10.97;;;3.40;;
13959;SDS011;7052;51.050;3.716;2023-09-19T04:54:36;10.43;;;3.40;;
13959;SDS011;7052;51.050;3.716;2023-09-19T04:57:04;18.00;;;4.10;;
13959;SDS011;7052;51.050;3.716;2023-09-19T04:59:31;14.00;;;3.53;;
13959;SDS011;7052;51.050;3.716;2023-09-19T05:02:00;12.23;;;3.80;;
13959;SDS011;7052;51.050;3.716;2023-09-19T05:04:27;12.77;;;3.47;;
13959;SDS011;7052;51.050;3.716;2023-09-19T05:06:54;18.38;;;4.50;;
13959;SDS011;7052;51.050;3.716;2023-09-19T05:09:21;11.00;;;3.92;;
13959;SDS011;7052;51.050;3.716;2023-09-19T05:11:50;12.27;;;3.90;;
13959;SDS011;7052;51.050;3.716;2023-09-19T05:14:18;14.20;;;3.70;;
13959;SDS011;7052;51.050;3.716;2023-09-19T05:16:48;14.48;;;3.95;;
13959;SDS011;7052;51.050;3.716;2023-09-19T05:19:20;9.88;;;3.47;;
13959;SDS011;7052;51.050;3.716;2023-09-19T05:21:48;10.95;;;3.42;;
13959;SDS011;7052;51.050;3.716;2023-09-19T05:24:15;15.75;;;4.45;;
13959;SDS011;7052;51.050;3.716;2023-09-19T05:26:44;11.52;;;3.90;;
13959;SDS011;7052;51.050;3.716;2023-09-19T05:29:12;11.15;;;3.70;;
13959;SDS011;7052;51.050;3.716;2023-09-19T05:31:41;15.77;;;4.00;;
13959;SDS011;7052;51.050;3.716;2023-09-19T05:34:08;10.95;;;3.60;;
13959;SDS011;7052;51.050;3.716;2023-09-19T05:36:37;12.68;;;3.72;;
13959;SDS011;7052;51.050;3.716;2023-09-19T05:39:04;10.47;;;3.60;;
13959;SDS011;7052;51.050;3.716;2023-09-19T05:41:34;16.35;;;3.80;;
13959;SDS011;7052;51.050;3.716;2023-09-19T05:44:05;9.63;;;3.90;;
13959;SDS011;7052;51.050;3.716;2023-09-19T05:46:33;8.52;;;2.92;;
13959;SDS011;7052;51.050;3.716;2023-09-19T05:49:05;14.65;;;4.13;;
13959;SDS011;7052;51.050;3.716;2023-09-19T05:51:33;11.65;;;3.80;;
13959;SDS011;7052;51.050;3.716;2023-09-19T05:54:03;12.38;;;3.55;;
13959;SDS011;7052;51.050;3.716;2023-09-19T05:56:33;18.27;;;3.90;;
13959;SDS011;7052;51.050;3.716;2023-09-19T05:59:00;10.83;;;3.83;;
13959;SDS011;7052;51.050;3.716;2023-09-19T06:01:28;13.85;;;4.25;;
13959;SDS011;7052;51.050;3.716;2023-09-19T06:03:59;14.17;;;3.70;;
13959;SDS011;7052;51.050;3.716;2023-09-19T06:06:28;11.95;;;3.80;;
13959;SDS011;7052;51.050;3.716;2023-09-19T06:08:56;13.05;;;3.78;;
13959;SDS011;7052;51.050;3.716;2023-09-19T06:11:24;10.60;;;3.10;;
13959;SDS011;7052;51.050;3.716;2023-09-19T06:13:53;13.60;;;3.60;;
13959;SDS011;7052;51.050;3.716;2023-09-19T06:16:21;8.85;;;3.70;;
13959;SDS011;7052;51.050;3.716;2023-09-19T06:18:48;11.90;;;3.58;;
13959;SDS011;7052;51.050;3.716;2023-09-19T06:21:18;10.65;;;3.65;;
13959;SDS011;7052;51.050;3.716;2023-09-19T06:23:46;14.13;;;3.72;;
13959;SDS011;7052;51.050;3.716;2023-09-19T06:26:15;12.27;;;3.75;;
13959;SDS011;7052;51.050;3.716;2023-09-19T06:28:44;8.52;;;4.00;;
13959;SDS011;7052;51.050;3.716;2023-09-19T06:31:19;13.57;;;4.05;;
13959;SDS011;7052;51.050;3.716;2023-09-19T06:33:48;13.38;;;3.47;;
13959;SDS011;7052;51.050;3.716;2023-09-19T06:36:16;13.65;;;3.45;;
13959;SDS011;7052;51.050;3.716;2023-09-19T06:38:44;11.63;;;3.35;;
13959;SDS011;7052;51.050;3.716;2023-09-19T06:41:12;9.57;;;3.20;;
13959;SDS011;7052;51.050;3.716;2023-09-19T06:43:44;9.15;;;3.10;;
13959;SDS011;7052;51.050;3.716;2023-09-19T06:46:10;10.68;;;3.17;;
13959;SDS011;7052;51.050;3.716;2023-09-19T06:48:38;14.45;;;3.90;;
13959;SDS011;7052;51.050;3.716;2023-09-19T06:51:07;10.23;;;3.20;;
13959;SDS011;7052;51.050;3.716;2023-09-19T06:53:35;11.00;;;3.28;;
13959;SDS011;7052;51.050;3.716;2023-09-19T06:56:02;8.73;;;3.38;;
13959;SDS011;7052;51.050;3.716;2023-09-19T06:58:31;9.80;;;3.35;;
13959;SDS011;7052;51.050;3.716;2023-09-19T07:01:01;10.25;;;3.10;;
13959;SDS011;7052;51.050;3.716;2023-09-19T07:03:28;12.65;;;3.72;;
13959;SDS011;7052;51.050;3.716;2023-09-19T07:05:55;10.93;;;3.83;;
13959;SDS011;7052;51.050;3.716;2023-09-19T07:08:23;14.50;;;3.40;;
13959;SDS011;7052;51.050;3.716;2023-09-19T07:10:50;13.52;;;3.50;;
13959;SDS011;7052;51.050;3.716;2023-09-19T07:13:19;11.13;;;2.95;;
13959;SDS011;7052;51.050;3.716;2023-09-19T07:15:46;8.68;;;3.40;;
13959;SDS011;7052;51.050;3.716;2023-09-19T07:18:19;10.00;;;3.30;;
13959;SDS011;7052;51.050;3.716;2023-09-19T07:20:46;11.02;;;3.05;;
13959;SDS011;7052;51.050;3.716;2023-09-19T07:23:15;14.05;;;3.38;;
13959;SDS011;7052;51.050;3.716;2023-09-19T07:25:43;7.95;;;3.70;;
13959;SDS011;7052;51.050;3.716;2023-09-19T07:28:14;12.18;;;3.35;;
13959;SDS011;7052;51.050;3.716;2023-09-19T07:30:42;11.93;;;3.63;;
13959;SDS011;7052;51.050;3.716;2023-09-19T07:33:09;11.45;;;3.22;;
13959;SDS011;7052;51.050;3.716;2023-09-19T07:38:22;12.23;;;3.40;;
13959;SDS011;7052;51.050;3.716;2023-09-19T07:40:50;12.38;;;3.95;;
13959;SDS011;7052;51.050;3.716;2023-09-19T07:43:17;13.45;;;3.15;;
13959;SDS011;7052;51.050;3.716;2023-09-19T07:45:44;14.00;;;3.47;;
13959;SDS011;7052;51.050;3.716;2023-09-19T07:48:12;7.35;;;2.90;;
13959;SDS011;7052;51.050;3.716;2023-09-19T07:50:40;9.88;;;3.20;;
13959;SDS011;7052;51.050;3.716;2023-09-19T07:53:12;8.75;;;3.25;;
13959;SDS011;7052;51.050;3.716;2023-09-19T07:55:42;7.88;;;3.30;;
13959;SDS011;7052;51.050;3.716;2023-09-19T07:58:13;10.65;;;3.50;;
13959;SDS011;7052;51.050;3.716;2023-09-19T08:00:41;16.13;;;3.75;;
13959;SDS011;7052;51.050;3.716;2023-09-19T08:03:08;9.13;;;3.22;;
13959;SDS011;7052;51.050;3.716;2023-09-19T08:05:39;11.70;;;3.47;;
13959;SDS011;7052;51.050;3.716;2023-09-19T08:08:17;11.82;;;3.50;;
13959;SDS011;7052;51.050;3.716;2023-09-19T08:10:52;13.20;;;3.40;;
13959;SDS011;7052;51.050;3.716;2023-09-19T08:13:21;14.88;;;3.28;;
13959;SDS011;7052;51.050;3.716;2023-09-19T08:15:50;12.32;;;3.70;;
13959;SDS011;7052;51.050;3.716;2023-09-19T08:18:21;10.98;;;3.45;;
13959;SDS011;7052;51.050;3.716;2023-09-19T08:20:56;7.10;;;3.03;;
13959;SDS011;7052;51.050;3.716;2023-09-19T08:23:26;8.85;;;3.28;;
13959;SDS011;7052;51.050;3.716;2023-09-19T08:25:55;13.90;;;3.47;;
13959;SDS011;7052;51.050;3.716;2023-09-19T08:28:28;14.48;;;3.95;;
13959;SDS011;7052;51.050;3.716;2023-09-19T08:30:55;11.00;;;3.30;;
13959;SDS011;7052;51.050;3.716;2023-09-19T08:33:23;9.77;;;3.42;;
13959;SDS011;7052;51.050;3.716;2023-09-19T08:35:53;14.20;;;3.90;;
13959;SDS011;7052;51.050;3.716;2023-09-19T08:38:24;12.23;;;3.28;;
13959;SDS011;7052;51.050;3.716;2023-09-19T08:40:56;11.13;;;3.10;;
13959;SDS011;7052;51.050;3.716;2023-09-19T08:43:27;8.25;;;2.88;;
13959;SDS011;7052;51.050;3.716;2023-09-19T08:45:55;7.30;;;2.88;;
13959;SDS011;7052;51.050;3.716;2023-09-19T08:48:32;9.02;;;3.40;;
13959;SDS011;7052;51.050;3.716;2023-09-19T08:51:06;11.80;;;3.65;;
13959;SDS011;7052;51.050;3.716;2023-09-19T08:53:36;7.45;;;3.17;;
13959;SDS011;7052;51.050;3.716;2023-09-19T08:56:20;8.60;;;2.97;;
13959;SDS011;7052;51.050;3.716;2023-09-19T08:58:53;12.43;;;3.50;;
13959;SDS011;7052;51.050;3.716;2023-09-19T09:01:24;12.10;;;3.35;;
13959;SDS011;7052;51.050;3.716;2023-09-19T09:03:55;8.85;;;3.22;;
13959;SDS011;7052;51.050;3.716;2023-09-19T09:06:25;9.52;;;3.00;;
13959;SDS011;7052;51.050;3.716;2023-09-19T09:08:55;11.65;;;3.25;;
13959;SDS011;7052;51.050;3.716;2023-09-19T09:11:22;9.30;;;2.92;;
13959;SDS011;7052;51.050;3.716;2023-09-19T09:13:49;9.27;;;3.10;;
13959;SDS011;7052;51.050;3.716;2023-09-19T09:16:17;8.98;;;2.60;;
13959;SDS011;7052;51.050;3.716;2023-09-19T09:18:45;7.22;;;2.92;;
13959;SDS011;7052;51.050;3.716;2023-09-19T09:21:17;7.78;;;3.00;;
13959;SDS011;7052;51.050;3.716;2023-09-19T09:23:46;13.23;;;3.00;;
13959;SDS011;7052;51.050;3.716;2023-09-19T09:26:15;11.57;;;3.30;;
13959;SDS011;7052;51.050;3.716;2023-09-19T09:28:44;7.88;;;3.00;;
13959;SDS011;7052;51.050;3.716;2023-09-19T09:31:22;9.90;;;3.22;;
13959;SDS011;7052;51.050;3.716;2023-09-19T09:33:53;9.98;;;2.85;;
13959;SDS011;7052;51.050;3.716;2023-09-19T09:36:33;9.57;;;2.65;;
13959;SDS011;7052;51.050;3.716;2023-09-19T09:39:02;13.55;;;3.05;;
13959;SDS011;7052;51.050;3.716;2023-09-19T09:41:42;7.97;;;2.72;;
13959;SDS011;7052;51.050;3.716;2023-09-19T09:44:14;7.70;;;3.00;;
13959;SDS011;7052;51.050;3.716;2023-09-19T09:46:42;7.10;;;3.13;;
13959;SDS011;7052;51.050;3.716;2023-09-19T09:49:27;9.20;;;2.85;;
13959;SDS011;7052;51.050;3.716;2023-09-19T09:52:00;11.27;;;4.22;;
13959;SDS011;7052;51.050;3.716;2023-09-19T09:54:32;8.07;;;3.17;;
13959;SDS011;7052;51.050;3.716;2023-09-19T09:57:10;57.67;;;7.88;;
13959;SDS011;7052;51.050;3.716;2023-09-19T09:59:46;10.63;;;2.92;;
13959;SDS011;7052;51.050;3.716;2023-09-19T10:02:17;4.50;;;2.20;;
13959;SDS011;7052;51.050;3.716;2023-09-19T10:04:52;6.07;;;2.53;;
13959;SDS011;7052;51.050;3.716;2023-09-19T10:07:34;7.30;;;2.13;;
13959;SDS011;7052;51.050;3.716;2023-09-19T10:10:06;5.70;;;2.45;;
13959;SDS011;7052;51.050;3.716;2023-09-19T10:12:59;6.97;;;2.17;;
13959;SDS011;7052;51.050;3.716;2023-09-19T10:15:28;5.57;;;2.42;;
13959;SDS011;7052;51.050;3.716;2023-09-19T10:17:59;6.45;;;2.40;;
13959;SDS011;7052;51.050;3.716;2023-09-19T10:20:30;4.50;;;2.03;;
13959;SDS011;7052;51.050;3.716;2023-09-19T10:23:04;7.60;;;2.65;;
13959;SDS011;7052;51.050;3.716;2023-09-19T10:25:38;5.10;;;2.00;;
13959;SDS011;7052;51.050;3.716;2023-09-19T10:28:08;8.32;;;2.60;;
13959;SDS011;7052;51.050;3.716;2023-09-19T10:30:40;4.18;;;1.85;;
13959;SDS011;7052;51.050;3.716;2023-09-19T10:33:17;6.93;;;2.35;;
13959;SDS011;7052;51.050;3.716;2023-09-19T10:35:46;6.13;;;2.17;;
13959;SDS011;7052;51.050;3.716;2023-09-19T10:38:19;4.68;;;1.80;;
13959;SDS011;7052;51.050;3.716;2023-09-19T10:40:50;3.83;;;2.20;;
13959;SDS011;7052;51.050;3.716;2023-09-19T10:43:29;6.82;;;2.15;;
13959;SDS011;7052;51.050;3.716;2023-09-19T10:46:00;4.65;;;2.28;;
13959;SDS011;7052;51.050;3.716;2023-09-19T10:48:35;5.25;;;1.98;;
13959;SDS011;7052;51.050;3.716;2023-09-19T10:51:15;10.43;;;2.00;;
13959;SDS011;7052;51.050;3.716;2023-09-19T10:53:50;5.10;;;1.85;;
13959;SDS011;7052;51.050;3.716;2023-09-19T10:56:21;13.13;;;2.72;;
13959;SDS011;7052;51.050;3.716;2023-09-19T10:59:06;4.88;;;1.88;;
13959;SDS011;7052;51.050;3.716;2023-09-19T11:01:44;4.50;;;2.17;;
13959;SDS011;7052;51.050;3.716;2023-09-19T11:04:23;4.68;;;1.60;;
13959;SDS011;7052;51.050;3.716;2023-09-19T11:07:02;3.67;;;1.65;;
13959;SDS011;7052;51.050;3.716;2023-09-19T11:09:42;7.90;;;1.92;;
13959;SDS011;7052;51.050;3.716;2023-09-19T11:21:39;4.85;;;2.03;;
13959;SDS011;7052;51.050;3.716;2023-09-19T11:24:30;3.08;;;1.55;;
13959;SDS011;7052;51.050;3.716;2023-09-19T11:27:12;8.20;;;2.40;;
13959;SDS011;7052;51.050;3.716;2023-09-19T11:29:45;7.93;;;2.05;;
13959;SDS011;7052;51.050;3.716;2023-09-19T11:32:14;5.05;;;2.00;;
13959;SDS011;7052;51.050;3.716;2023-09-19T11:34:47;6.55;;;2.13;;
13959;SDS011;7052;51.050;3.716;2023-09-19T11:40:47;4.57;;;1.90;;
13959;SDS011;7052;51.050;3.716;2023-09-19T11:43:35;4.85;;;2.30;;
13959;SDS011;7052;51.050;3.716;2023-09-19T11:46:08;5.78;;;1.70;;
13959;SDS011;7052;51.050;3.716;2023-09-19T11:48:37;5.18;;;1.90;;
13959;SDS011;7052;51.050;3.716;2023-09-19T11:51:13;6.78;;;2.10;;
13959;SDS011;7052;51.050;3.716;2023-09-19T11:53:51;6.57;;;2.08;;
13959;SDS011;7052;51.050;3.716;2023-09-19T11:56:25;7.18;;;2.13;;
13959;SDS011;7052;51.050;3.716;2023-09-19T11:58:57;7.82;;;2.10;;
13959;SDS011;7052;51.050;3.716;2023-09-19T12:01:27;3.17;;;1.92;;
13959;SDS011;7052;51.050;3.716;2023-09-19T12:03:57;5.22;;;2.00;;
13959;SDS011;7052;51.050;3.716;2023-09-19T12:06:27;8.10;;;2.22;;
13959;SDS011;7052;51.050;3.716;2023-09-19T12:08:58;4.00;;;2.33;;
13959;SDS011;7052;51.050;3.716;2023-09-19T12:11:27;6.90;;;2.33;;
13959;SDS011;7052;51.050;3.716;2023-09-19T12:14:01;6.60;;;2.30;;
13959;SDS011;7052;51.050;3.716;2023-09-19T12:16:29;5.18;;;2.15;;
13959;SDS011;7052;51.050;3.716;2023-09-19T12:18:56;9.15;;;2.63;;
13959;SDS011;7052;51.050;3.716;2023-09-19T12:21:24;8.15;;;2.42;;
13959;SDS011;7052;51.050;3.716;2023-09-19T12:24:00;4.38;;;2.10;;
13959;SDS011;7052;51.050;3.716;2023-09-19T12:26:39;10.82;;;2.58;;
13959;SDS011;7052;51.050;3.716;2023-09-19T12:29:18;5.85;;;2.13;;
13959;SDS011;7052;51.050;3.716;2023-09-19T12:31:50;7.10;;;2.30;;
13959;SDS011;7052;51.050;3.716;2023-09-19T12:34:20;7.55;;;2.33;;
13959;SDS011;7052;51.050;3.716;2023-09-19T12:37:01;10.13;;;2.88;;
13959;SDS011;7052;51.050;3.716;2023-09-19T12:39:42;5.78;;;2.42;;
13959;SDS011;7052;51.050;3.716;2023-09-19T12:42:14;3.63;;;1.83;;
13959;SDS011;7052;51.050;3.716;2023-09-19T12:44:42;8.23;;;2.28;;
13959;SDS011;7052;51.050;3.716;2023-09-19T12:47:13;8.38;;;2.42;;
13959;SDS011;7052;51.050;3.716;2023-09-19T12:52:52;6.60;;;2.40;;
13959;SDS011;7052;51.050;3.716;2023-09-19T12:55:25;6.53;;;2.20;;
13959;SDS011;7052;51.050;3.716;2023-09-19T12:58:00;16.65;;;2.95;;
13959;SDS011;7052;51.050;3.716;2023-09-19T13:00:34;3.88;;;2.25;;
13959;SDS011;7052;51.050;3.716;2023-09-19T13:03:11;8.07;;;2.78;;
13959;SDS011;7052;51.050;3.716;2023-09-19T13:05:51;6.53;;;2.40;;
13959;SDS011;7052;51.050;3.716;2023-09-19T13:08:27;5.53;;;2.40;;
13959;SDS011;7052;51.050;3.716;2023-09-19T13:11:00;3.90;;;2.10;;
13959;SDS011;7052;51.050;3.716;2023-09-19T13:13:37;6.50;;;2.42;;
13959;SDS011;7052;51.050;3.716;2023-09-19T13:16:06;5.32;;;2.50;;
13959;SDS011;7052;51.050;3.716;2023-09-19T13:18:47;5.97;;;2.40;;
13959;SDS011;7052;51.050;3.716;2023-09-19T13:21:27;5.93;;;2.20;;
13959;SDS011;7052;51.050;3.716;2023-09-19T13:24:20;6.68;;;2.50;;
13959;SDS011;7052;51.050;3.716;2023-09-19T13:26:51;5.57;;;2.25;;
13959;SDS011;7052;51.050;3.716;2023-09-19T13:29:22;6.72;;;2.65;;
13959;SDS011;7052;51.050;3.716;2023-09-19T13:31:50;6.57;;;2.40;;
13959;SDS011;7052;51.050;3.716;2023-09-19T13:34:19;5.45;;;2.30;;
13959;SDS011;7052;51.050;3.716;2023-09-19T13:36:46;4.07;;;2.25;;
13959;SDS011;7052;51.050;3.716;2023-09-19T13:39:14;6.13;;;2.20;;
13959;SDS011;7052;51.050;3.716;2023-09-19T13:41:45;5.95;;;2.28;;
13959;SDS011;7052;51.050;3.716;2023-09-19T13:44:16;4.25;;;2.03;;
13959;SDS011;7052;51.050;3.716;2023-09-19T13:46:45;5.57;;;2.40;;
13959;SDS011;7052;51.050;3.716;2023-09-19T13:49:16;4.55;;;2.50;;
13959;SDS011;7052;51.050;3.716;2023-09-19T13:51:43;8.13;;;2.65;;
13959;SDS011;7052;51.050;3.716;2023-09-19T13:54:10;9.10;;;3.05;;
13959;SDS011;7052;51.050;3.716;2023-09-19T13:56:39;6.03;;;2.63;;
13959;SDS011;7052;51.050;3.716;2023-09-19T13:59:07;6.82;;;2.63;;
13959;SDS011;7052;51.050;3.716;2023-09-19T14:01:35;5.35;;;2.13;;
13959;SDS011;7052;51.050;3.716;2023-09-19T14:04:01;7.70;;;2.50;;
13959;SDS011;7052;51.050;3.716;2023-09-19T14:06:28;3.72;;;2.10;;
13959;SDS011;7052;51.050;3.716;2023-09-19T14:08:56;5.25;;;2.40;;
13959;SDS011;7052;51.050;3.716;2023-09-19T14:11:26;9.00;;;2.90;;
13959;SDS011;7052;51.050;3.716;2023-09-19T14:13:53;5.65;;;2.40;;
13959;SDS011;7052;51.050;3.716;2023-09-19T14:16:22;5.50;;;2.58;;
13959;SDS011;7052;51.050;3.716;2023-09-19T14:18:49;7.13;;;2.40;;
13959;SDS011;7052;51.050;3.716;2023-09-19T14:21:17;3.65;;;2.10;;
13959;SDS011;7052;51.050;3.716;2023-09-19T14:23:44;7.00;;;2.38;;
13959;SDS011;7052;51.050;3.716;2023-09-19T14:26:11;9.77;;;2.75;;
13959;SDS011;7052;51.050;3.716;2023-09-19T14:28:38;5.65;;;2.47;;
13959;SDS011;7052;51.050;3.716;2023-09-19T14:31:06;5.72;;;2.83;;
13959;SDS011;7052;51.050;3.716;2023-09-19T14:33:37;7.20;;;2.90;;
13959;SDS011;7052;51.050;3.716;2023-09-19T14:36:07;4.47;;;2.33;;
13959;SDS011;7052;51.050;3.716;2023-09-19T14:38:36;7.15;;;2.45;;
13959;SDS011;7052;51.050;3.716;2023-09-19T14:41:04;5.53;;;2.10;;
13959;SDS011;7052;51.050;3.716;2023-09-19T14:43:32;7.43;;;2.65;;
13959;SDS011;7052;51.050;3.716;2023-09-19T14:46:04;5.05;;;2.17;;
13959;SDS011;7052;51.050;3.716;2023-09-19T14:48:33;6.45;;;2.42;;
13959;SDS011;7052;51.050;3.716;2023-09-19T14:51:01;5.38;;;2.47;;
13959;SDS011;7052;51.050;3.716;2023-09-19T14:53:29;4.85;;;2.75;;
13959;SDS011;7052;51.050;3.716;2023-09-19T14:55:59;5.88;;;2.88;;
13959;SDS011;7052;51.050;3.716;2023-09-19T14:58:28;8.20;;;2.67;;
13959;SDS011;7052;51.050;3.716;2023-09-19T15:01:02;9.77;;;2.97;;
13959;SDS011;7052;51.050;3.716;2023-09-19T15:03:30;7.18;;;2.92;;
13959;SDS011;7052;51.050;3.716;2023-09-19T15:06:05;7.38;;;3.08;;
13959;SDS011;7052;51.050;3.716;2023-09-19T15:08:35;6.07;;;2.80;;
13959;SDS011;7052;51.050;3.716;2023-09-19T15:11:03;4.88;;;2.92;;
13959;SDS011;7052;51.050;3.716;2023-09-19T15:13:30;9.35;;;3.53;;
13959;SDS011;7052;51.050;3.716;2023-09-19T15:15:59;7.68;;;2.65;;
13959;SDS011;7052;51.050;3.716;2023-09-19T15:18:28;7.90;;;3.00;;
13959;SDS011;7052;51.050;3.716;2023-09-19T15:21:04;7.53;;;2.72;;
13959;SDS011;7052;51.050;3.716;2023-09-19T15:23:32;7.38;;;3.05;;
13959;SDS011;7052;51.050;3.716;2023-09-19T15:26:00;6.25;;;2.78;;
13959;SDS011;7052;51.050;3.716;2023-09-19T15:28:27;5.75;;;3.08;;
13959;SDS011;7052;51.050;3.716;2023-09-19T15:30:58;4.38;;;2.63;;
13959;SDS011;7052;51.050;3.716;2023-09-19T15:33:27;5.85;;;2.55;;
13959;SDS011;7052;51.050;3.716;2023-09-19T15:36:04;9.88;;;3.10;;